createdAt,value
2023-04-02T00:00:19.618Z,96609.38
2023-04-02T00:02:50.575Z,96629.19
2023-04-02T00:05:51.483Z,96634.38
2023-04-02T00:08:27.669Z,96600.63
2023-04-02T00:10:58.275Z,96637.31
2023-04-02T00:13:35.679Z,96625.00
2023-04-02T00:16:07.223Z,96627.97
2023-04-02T00:18:40.096Z,96647.16
2023-04-02T00:21:14.806Z,96627.47
2023-04-02T00:23:45.018Z,96623.34
2023-04-02T00:26:31.249Z,96597.41
2023-04-02T00:28:59.501Z,96619.34
2023-04-02T00:31:28.302Z,96523.25
2023-04-02T00:33:57.111Z,96621.50
2023-04-02T00:36:30.191Z,96606.56
2023-04-02T00:39:01.133Z,96617.50
2023-04-02T00:41:36.195Z,96620.81
2023-04-02T00:44:05.988Z,96624.34
2023-04-02T00:46:47.105Z,96625.28
2023-04-02T00:49:23.043Z,96613.81
2023-04-02T00:51:56.413Z,96616.44
2023-04-02T00:54:29.410Z,96620.38
2023-04-02T00:56:59.621Z,96640.28
2023-04-02T00:59:30.824Z,96617.81
2023-04-02T01:02:02.812Z,96610.00
2023-04-02T01:04:34.659Z,96611.06
2023-04-02T01:07:09.324Z,96594.78
2023-04-02T01:09:56.519Z,96609.06
2023-04-02T01:12:35.982Z,96617.63
2023-04-02T01:15:13.453Z,96596.59
2023-04-02T01:18:04.769Z,96613.81
2023-04-02T01:20:55.290Z,96611.00
2023-04-02T01:23:30.913Z,96617.16
2023-04-02T01:26:10.156Z,96618.34
2023-04-02T01:28:58.245Z,96615.91
2023-04-02T01:31:27.831Z,96621.28
2023-04-02T01:33:56.806Z,96457.88
2023-04-02T01:36:33.764Z,96617.75
2023-04-02T01:39:10.787Z,96613.63
2023-04-02T01:41:46.466Z,96616.06
2023-04-02T01:44:22.694Z,96588.97
2023-04-02T01:46:51.206Z,96614.47
2023-04-02T01:49:22.623Z,96621.91
2023-04-02T01:51:55.033Z,96627.25
2023-04-02T01:54:24.370Z,96607.75
2023-04-02T01:56:53.187Z,96627.81
2023-04-02T01:59:24.491Z,96639.31
2023-04-02T02:01:58.512Z,96630.78
2023-04-02T02:04:27.239Z,96634.25
2023-04-02T02:06:58.680Z,96628.09
2023-04-02T02:09:30.176Z,96581.22
2023-04-02T02:11:59.781Z,96642.53
2023-04-02T02:14:30.940Z,96548.03
2023-04-02T02:17:02.504Z,96647.56
2023-04-02T02:19:35.815Z,96603.19
2023-04-02T02:22:13.311Z,96573.06
2023-04-02T02:24:42.383Z,96628.47
2023-04-02T02:27:40.660Z,96583.91
2023-04-02T02:30:16.747Z,96649.09
2023-04-02T02:32:52.313Z,96647.94
2023-04-02T02:35:23.820Z,96640.25
2023-04-02T02:37:58.346Z,96652.78
2023-04-02T02:40:33.206Z,96652.53
2023-04-02T02:43:04.467Z,96642.38
2023-04-02T02:45:38.818Z,96620.50
2023-04-02T02:48:13.199Z,96639.34
2023-04-02T02:50:42.476Z,96642.00
2023-04-02T02:53:19.209Z,96663.47
2023-04-02T02:55:51.214Z,96619.28
2023-04-02T02:58:23.623Z,96563.59
2023-04-02T03:00:53.328Z,96672.91
2023-04-02T03:03:24.564Z,96676.25
2023-04-02T03:05:56.541Z,96659.69
2023-04-02T03:08:31.506Z,96673.78
2023-04-02T03:11:06.508Z,96673.81
2023-04-02T03:13:36.994Z,96270.16
2023-04-02T03:16:12.973Z,96655.97
2023-04-02T03:18:47.464Z,96679.94
2023-04-02T03:21:25.875Z,96659.41
2023-04-02T03:23:58.551Z,96677.94
2023-04-02T03:26:31.982Z,96683.78
2023-04-02T03:29:04.214Z,96689.78
2023-04-02T03:31:39.310Z,96693.75
2023-04-02T03:34:14.234Z,96689.69
2023-04-02T03:36:49.893Z,96684.94
2023-04-02T03:39:24.219Z,96689.75
2023-04-02T03:41:57.028Z,96696.47
2023-04-02T03:44:30.370Z,96700.78
2023-04-02T03:47:05.895Z,96708.50
2023-04-02T03:49:42.535Z,96708.78
2023-04-02T03:52:12.915Z,96708.56
2023-04-02T03:54:53.106Z,96673.56
2023-04-02T03:57:30.660Z,96707.69
2023-04-02T04:00:05.184Z,96683.19
2023-04-02T04:02:43.854Z,96693.09
2023-04-02T04:05:24.295Z,96723.09
2023-04-02T04:07:54.820Z,96703.78
2023-04-02T04:10:27.064Z,96685.00
2023-04-02T04:12:58.719Z,96718.41
2023-04-02T04:15:30.427Z,96736.97
2023-04-02T04:18:06.374Z,96724.66
2023-04-02T04:20:46.227Z,96728.09
2023-04-02T04:23:25.975Z,96734.44
2023-04-02T04:25:59.965Z,96737.00
2023-04-02T04:28:32.985Z,96629.34
2023-04-02T04:31:06.944Z,96742.03
2023-04-02T04:33:42.885Z,96748.97
2023-04-02T04:36:28.995Z,96670.41
2023-04-02T04:39:01.650Z,96745.16
2023-04-02T04:41:34.125Z,96753.81
2023-04-02T04:44:08.188Z,96750.81
2023-04-02T04:46:41.989Z,96712.47
2023-04-02T04:49:16.182Z,96754.34
2023-04-02T04:51:49.384Z,96759.34
2023-04-02T04:54:18.706Z,96761.19
2023-04-02T04:56:49.643Z,96753.13
2023-04-02T04:59:23.179Z,96761.91
2023-04-02T05:01:58.873Z,96756.50
2023-04-02T05:04:34.777Z,96721.66
2023-04-02T05:07:07.440Z,96656.97
2023-04-02T05:09:41.743Z,96747.59
2023-04-02T05:12:19.625Z,96766.16
2023-04-02T05:14:53.327Z,96773.00
2023-04-02T05:17:27.222Z,96751.59
2023-04-02T05:20:00.985Z,96767.66
2023-04-02T05:22:38.850Z,96759.22
2023-04-02T05:25:19.973Z,96782.06
2023-04-02T05:27:52.741Z,96781.78
2023-04-02T05:30:46.788Z,96767.00
2023-04-02T05:33:23.638Z,96787.25
2023-04-02T05:35:59.504Z,96792.38
2023-04-02T05:38:29.914Z,96789.25
2023-04-02T05:41:03.337Z,96791.31
2023-04-02T05:43:34.807Z,96793.88
2023-04-02T05:46:05.673Z,96805.44
2023-04-02T05:48:36.634Z,96795.41
2023-04-02T05:51:07.459Z,96798.91
2023-04-02T05:53:36.321Z,96800.63
2023-04-02T05:56:07.232Z,96801.25
2023-04-02T05:58:38.293Z,96802.19
2023-04-02T06:01:17.649Z,96801.22
2023-04-02T06:03:49.031Z,96806.94
2023-04-02T06:06:20.296Z,96806.66
2023-04-02T06:08:51.971Z,96817.56
2023-04-02T06:11:22.462Z,96810.50
2023-04-02T06:13:50.729Z,96748.22
2023-04-02T06:16:19.579Z,96813.47
2023-04-02T06:18:47.897Z,96819.09
2023-04-02T06:21:22.025Z,96817.69
2023-04-02T06:23:56.843Z,96820.03
2023-04-02T06:26:28.717Z,96824.97
2023-04-02T06:29:02.619Z,96779.97
2023-04-02T06:31:38.243Z,96829.03
2023-04-02T06:34:12.573Z,96825.22
2023-04-02T06:36:42.645Z,96818.81
2023-04-02T06:39:18.550Z,96829.75
2023-04-02T06:41:46.999Z,96824.28
2023-04-02T06:44:19.800Z,96803.06
2023-04-02T06:46:52.634Z,96774.44
2023-04-02T06:49:25.509Z,96837.13
2023-04-02T06:51:57.090Z,96823.84
2023-04-02T06:54:25.265Z,96841.91
2023-04-02T06:56:56.413Z,96845.22
2023-04-02T06:59:28.632Z,96821.84
2023-04-02T07:02:04.211Z,96762.34
2023-04-02T07:04:33.697Z,96787.63
2023-04-02T07:07:06.457Z,96861.78
2023-04-02T07:09:34.713Z,96761.72
2023-04-02T07:12:03.756Z,96873.16
2023-04-02T07:14:32.547Z,96627.53
2023-04-02T07:17:01.287Z,96864.69
2023-04-02T07:19:29.755Z,96895.28
2023-04-02T07:21:58.110Z,96866.22
2023-04-02T07:24:27.669Z,96867.06
2023-04-02T07:26:56.144Z,96871.06
2023-04-02T07:29:24.629Z,96849.44
2023-04-02T07:31:54.078Z,96870.25
2023-04-02T07:34:22.352Z,96845.06
2023-04-02T07:36:50.474Z,96879.09
2023-04-02T07:39:18.627Z,96867.09
2023-04-02T07:41:56.848Z,96862.72
2023-04-02T07:44:25.050Z,96884.75
2023-04-02T07:46:53.266Z,96883.41
2023-04-02T07:49:21.531Z,96888.22
2023-04-02T07:51:50.953Z,96831.72
2023-04-02T07:54:19.270Z,96892.06
2023-04-02T07:56:47.511Z,96892.84
2023-04-02T07:59:17.103Z,96890.81
2023-04-02T08:01:45.345Z,96888.75
2023-04-02T08:04:20.134Z,96878.41
2023-04-02T08:06:49.778Z,96897.78
2023-04-02T08:09:18.603Z,96897.13
2023-04-02T08:11:47.021Z,96889.91
2023-04-02T08:14:16.594Z,96771.28
2023-04-02T08:16:49.401Z,96896.22
2023-04-02T08:19:18.225Z,96876.25
2023-04-02T08:21:48.185Z,96896.69
2023-04-02T08:24:19.155Z,96895.56
2023-04-02T08:26:47.722Z,96897.28
2023-04-02T08:29:17.491Z,96877.34
2023-04-02T08:31:45.683Z,96891.31
2023-04-02T08:34:14.165Z,96893.78
2023-04-02T08:36:46.048Z,96894.91
2023-04-02T08:39:14.759Z,96836.84
2023-04-02T08:41:48.487Z,96895.00
2023-04-02T08:44:44.519Z,96895.00
2023-04-02T08:47:15.574Z,96896.47
2023-04-02T08:49:51.042Z,96868.19
2023-04-02T08:52:23.485Z,96899.31
2023-04-02T08:54:51.953Z,96871.94
2023-04-02T08:57:33.225Z,96901.00
2023-04-02T09:00:10.952Z,96839.47
2023-04-02T09:02:41.805Z,96902.63
2023-04-02T09:05:19.948Z,96891.09
2023-04-02T09:07:49.478Z,96896.28
2023-04-02T09:10:18.918Z,96904.47
2023-04-02T09:12:53.261Z,96912.34
2023-04-02T09:15:37.356Z,96908.44
2023-04-02T09:18:15.610Z,96906.72
2023-04-02T09:20:44.633Z,96890.28
2023-04-02T09:23:18.037Z,96896.31
2023-04-02T09:26:01.355Z,96896.41
2023-04-02T09:28:32.928Z,96915.72
2023-04-02T09:31:18.238Z,96920.75
2023-04-02T09:33:49.233Z,96859.75
2023-04-02T09:36:44.321Z,96914.13
2023-04-02T09:39:19.593Z,96919.75
2023-04-02T09:41:59.145Z,96914.47
2023-04-02T09:44:33.970Z,96921.81
2023-04-02T09:47:05.237Z,96916.38
2023-04-02T09:49:35.710Z,96881.28
2023-04-02T09:52:28.224Z,96912.88
2023-04-02T09:55:23.066Z,96923.06
2023-04-02T09:57:53.544Z,96915.91
2023-04-02T10:00:31.930Z,96919.78
2023-04-02T10:03:07.694Z,96906.78
2023-04-02T10:05:40.464Z,96924.22
2023-04-02T10:08:19.130Z,96916.09
2023-04-02T10:10:51.168Z,96918.66
2023-04-02T10:13:25.751Z,96912.53
2023-04-02T10:15:59.442Z,96848.25
2023-04-02T10:18:40.176Z,96912.97
2023-04-02T10:21:12.860Z,96866.84
2023-04-02T10:23:41.935Z,96889.53
2023-04-02T10:26:39.401Z,96910.81
2023-04-02T10:29:35.383Z,96902.03
2023-04-02T10:32:10.320Z,96904.56
2023-04-02T10:34:47.585Z,96900.03
2023-04-02T10:37:40.989Z,96902.94
2023-04-02T10:40:13.908Z,96892.69
2023-04-02T10:42:51.220Z,96904.63
2023-04-02T10:45:33.076Z,96896.75
2023-04-02T10:48:11.092Z,96900.34
2023-04-02T10:50:51.003Z,96901.47
2023-04-02T10:53:20.541Z,96896.81
2023-04-02T10:55:54.389Z,96876.91
2023-04-02T10:58:26.689Z,96902.25
2023-04-02T11:00:59.982Z,96903.84
2023-04-02T11:03:37.068Z,96851.91
2023-04-02T11:06:18.336Z,96874.13
2023-04-02T11:08:49.019Z,96880.56
2023-04-02T11:11:22.721Z,96899.44
2023-04-02T11:13:56.558Z,96897.56
2023-04-02T11:16:26.023Z,96895.63
2023-04-02T11:19:28.287Z,96903.66
2023-04-02T11:22:02.015Z,96904.47
2023-04-02T11:24:40.680Z,96910.75
2023-04-02T11:27:17.198Z,96897.31
2023-04-02T11:29:46.998Z,96902.44
2023-04-02T11:32:27.654Z,96902.44
2023-04-02T11:35:15.337Z,96907.72
2023-04-02T11:37:46.505Z,96880.88
2023-04-02T11:40:48.331Z,96909.50
2023-04-02T11:43:51.500Z,96907.06
2023-04-02T11:46:49.349Z,96896.78
2023-04-02T11:49:44.924Z,96892.09
2023-04-02T11:52:28.840Z,96892.38
2023-04-02T11:55:02.587Z,96860.34
2023-04-02T11:58:07.374Z,96897.72
2023-04-02T12:01:01.323Z,96892.72
2023-04-02T12:03:52.809Z,96873.31
2023-04-02T12:06:28.496Z,96894.84
2023-04-02T12:09:08.076Z,96900.53
2023-04-02T12:11:40.964Z,96862.34
2023-04-02T12:14:46.840Z,96889.34
2023-04-02T12:17:19.691Z,96877.47
2023-04-02T12:19:49.866Z,96845.97
2023-04-02T12:22:23.251Z,96900.06
2023-04-02T12:24:52.142Z,96881.69
2023-04-02T12:27:24.584Z,96898.53
2023-04-02T12:29:52.837Z,96892.78
2023-04-02T12:32:27.756Z,96897.59
2023-04-02T12:34:59.088Z,96894.06
2023-04-02T12:37:29.379Z,96900.94
2023-04-02T12:39:59.675Z,96883.34
2023-04-02T12:42:32.109Z,96900.56
2023-04-02T12:45:00.856Z,96886.16
2023-04-02T12:47:29.821Z,96884.03
2023-04-02T12:49:59.846Z,96894.44
2023-04-02T12:52:30.638Z,96876.78
2023-04-02T12:55:00.895Z,96894.25
2023-04-02T12:57:49.187Z,96877.22
2023-04-02T13:00:37.258Z,96899.91
2023-04-02T13:03:21.342Z,96897.22
2023-04-02T13:05:55.656Z,96900.38
2023-04-02T13:08:27.337Z,96818.25
2023-04-02T13:10:58.029Z,96904.91
2023-04-02T13:13:35.515Z,96838.94
2023-04-02T13:16:36.448Z,96912.84
2023-04-02T13:19:12.850Z,96921.06
2023-04-02T13:21:41.011Z,96903.47
2023-04-02T13:24:19.018Z,96912.81
2023-04-02T13:26:49.660Z,96941.97
2023-04-02T13:29:24.507Z,96941.28
2023-04-02T13:31:53.551Z,96903.97
2023-04-02T13:34:21.778Z,96950.59
2023-04-02T13:36:50.250Z,96950.03
2023-04-02T13:39:19.482Z,96915.91
2023-04-02T13:41:50.069Z,96928.25
2023-04-02T13:44:25.382Z,96951.84
2023-04-02T13:46:55.003Z,96942.13
2023-04-02T13:49:24.261Z,96938.00
2023-04-02T13:51:54.068Z,96915.56
2023-04-02T13:54:27.549Z,96919.69
2023-04-02T13:56:57.248Z,96942.13
2023-04-02T13:59:28.389Z,96924.00
2023-04-02T14:01:59.936Z,96921.50
2023-04-02T14:04:33.905Z,96944.09
2023-04-02T14:07:34.596Z,96919.56
2023-04-02T14:10:15.591Z,96935.78
2023-04-02T14:12:55.330Z,96929.31
2023-04-02T14:15:40.861Z,96944.38
2023-04-02T14:18:27.577Z,96805.75
2023-04-02T14:21:04.078Z,96942.38
2023-04-02T14:23:45.166Z,96944.56
2023-04-02T14:26:22.818Z,96935.47
2023-04-02T14:28:59.517Z,96954.03
2023-04-02T14:31:35.301Z,96940.63
2023-04-02T14:34:09.936Z,96955.50
2023-04-02T14:36:47.645Z,96942.88
2023-04-02T14:39:24.127Z,96900.25
2023-04-02T14:41:59.339Z,96935.91
2023-04-02T14:44:31.625Z,96949.78
2023-04-02T14:47:09.884Z,96963.69
2023-04-02T14:49:42.980Z,96829.97
2023-04-02T14:52:15.165Z,96953.59
2023-04-02T14:54:51.888Z,96950.81
2023-04-02T14:57:24.204Z,96958.78
2023-04-02T14:59:59.771Z,96946.19
2023-04-02T15:02:41.698Z,96948.38
2023-04-02T15:05:17.808Z,96950.75
2023-04-02T15:07:51.680Z,96959.34
2023-04-02T15:10:27.729Z,96963.13
2023-04-02T15:12:58.041Z,96967.84
2023-04-02T15:15:40.432Z,96808.16
2023-04-02T15:18:15.462Z,96837.72
2023-04-02T15:20:50.471Z,96962.53
2023-04-02T15:23:30.630Z,96972.31
2023-04-02T15:26:11.469Z,96976.09
2023-04-02T15:28:44.922Z,96974.31
2023-04-02T15:31:15.623Z,96970.00
2023-04-02T15:33:46.836Z,96962.59
2023-04-02T15:36:43.149Z,96982.53
2023-04-02T15:39:28.249Z,96953.28
2023-04-02T15:42:06.335Z,96982.19
2023-04-02T15:44:37.856Z,96994.31
2023-04-02T15:47:15.809Z,96994.66
2023-04-02T15:49:53.132Z,96957.41
2023-04-02T15:52:30.306Z,96881.47
2023-04-02T15:55:11.580Z,96973.78
2023-04-02T15:57:58.211Z,96999.56
2023-04-02T16:00:31.790Z,97010.47
2023-04-02T16:03:41.997Z,97011.66
2023-04-02T16:06:25.430Z,97017.16
2023-04-02T16:09:19.150Z,97002.25
2023-04-02T16:11:47.259Z,97030.09
2023-04-02T16:14:25.696Z,97032.06
2023-04-02T16:16:57.181Z,97041.06
2023-04-02T16:19:33.307Z,97028.28
2023-04-02T16:22:08.824Z,97043.50
2023-04-02T16:24:36.936Z,96978.03
2023-04-02T16:27:18.971Z,97020.72
2023-04-02T16:29:59.916Z,97054.25
2023-04-02T16:32:46.755Z,97055.28
2023-04-02T16:38:10.137Z,97054.06
2023-04-02T16:40:43.398Z,97046.38
2023-04-02T16:43:23.322Z,97059.47
2023-04-02T16:46:01.393Z,97056.25
2023-04-02T16:48:42.495Z,97077.03
2023-04-02T16:51:21.278Z,97080.75
2023-04-02T16:54:02.060Z,97087.38
2023-04-02T16:56:51.256Z,97098.56
2023-04-02T16:59:25.888Z,97097.75
2023-04-02T17:02:01.669Z,97100.09
2023-04-02T17:04:58.083Z,97108.34
2023-04-02T17:07:36.201Z,97092.59
2023-04-02T17:10:21.810Z,97082.59
2023-04-02T17:12:58.222Z,97042.34
2023-04-02T17:15:29.692Z,97127.03
2023-04-02T17:17:59.883Z,97132.44
2023-04-02T17:20:28.264Z,97140.59
2023-04-02T17:22:57.601Z,97135.53
2023-04-02T17:25:31.372Z,96969.50
2023-04-02T17:27:59.497Z,97146.56
2023-04-02T17:30:40.605Z,97114.44
2023-04-02T17:33:27.463Z,97155.25
2023-04-02T17:36:16.451Z,97148.78
2023-04-02T17:38:54.132Z,97111.84
2023-04-02T17:41:33.124Z,97158.84
2023-04-02T17:44:16.570Z,97165.94
2023-04-02T17:46:52.214Z,97176.31
2023-04-02T17:49:27.567Z,97182.66
2023-04-02T17:52:02.357Z,97187.19
2023-04-02T17:54:42.725Z,97195.16
2023-04-02T17:57:25.545Z,97199.50
2023-04-02T18:00:18.064Z,97169.09
2023-04-02T18:03:06.296Z,97180.72
2023-04-02T18:05:43.806Z,97215.88
2023-04-02T18:08:24.296Z,97204.38
2023-04-02T18:11:01.961Z,97160.91
2023-04-02T18:13:36.227Z,97227.63
2023-04-02T18:16:36.942Z,97243.69
2023-04-02T18:19:16.406Z,97226.94
2023-04-02T18:21:51.556Z,97225.44
2023-04-02T18:24:31.978Z,97254.13
2023-04-02T18:27:13.901Z,97262.06
2023-04-02T18:29:51.874Z,97103.19
2023-04-02T18:32:40.432Z,97273.75
2023-04-02T18:35:16.908Z,97268.69
2023-04-02T18:37:59.424Z,97280.84
2023-04-02T18:40:43.458Z,97293.13
2023-04-02T18:43:27.181Z,97298.28
2023-04-02T18:46:06.608Z,97308.91
2023-04-02T18:48:44.180Z,97308.34
2023-04-02T18:51:18.422Z,97305.72
2023-04-02T18:53:47.962Z,97307.00
2023-04-02T18:56:19.850Z,97311.47
2023-04-02T18:58:57.265Z,97156.75
2023-04-02T19:01:34.012Z,97311.75
2023-04-02T19:04:05.667Z,97307.03
2023-04-02T19:06:38.478Z,97289.09
2023-04-02T19:09:14.105Z,97339.88
2023-04-02T19:11:42.374Z,97334.69
2023-04-02T19:14:15.004Z,97334.63
2023-04-02T19:17:01.705Z,97343.53
2023-04-02T19:19:35.914Z,97341.13
2023-04-02T19:22:16.788Z,97347.34
2023-04-02T19:25:02.541Z,97318.59
2023-04-02T19:27:38.216Z,97358.91
2023-04-02T19:30:28.041Z,97366.06
2023-04-02T19:33:06.648Z,97345.53
2023-04-02T19:35:43.163Z,97364.53
2023-04-02T19:38:25.187Z,97369.06
2023-04-02T19:41:00.090Z,97267.53
2023-04-02T19:43:28.404Z,97346.25
2023-04-02T19:45:56.945Z,97379.84
2023-04-02T19:48:28.529Z,97383.31
2023-04-02T19:50:56.875Z,97369.09
2023-04-02T19:53:25.116Z,97372.56
2023-04-02T19:55:53.319Z,97389.69
2023-04-02T19:58:27.676Z,97390.91
2023-04-02T20:00:56.154Z,97380.06
2023-04-02T20:03:24.790Z,97398.16
2023-04-02T20:05:55.061Z,97411.34
2023-04-02T20:08:23.441Z,97408.84
2023-04-02T20:10:51.830Z,97394.44
2023-04-02T20:13:20.003Z,97417.91
2023-04-02T20:15:49.416Z,97420.75
2023-04-02T20:18:17.748Z,97416.06
2023-04-02T20:20:47.134Z,97423.09
2023-04-02T20:23:17.711Z,97431.94
2023-04-02T20:25:46.935Z,97435.56
2023-04-02T20:28:15.466Z,97438.22
2023-04-02T20:30:43.670Z,97439.88
2023-04-02T20:33:12.182Z,97446.16
2023-04-02T20:35:41.401Z,97459.38
2023-04-02T20:38:09.729Z,97456.88
2023-04-02T20:40:40.631Z,97436.44
2023-04-02T20:43:29.885Z,97460.53
2023-04-02T20:45:59.892Z,97452.28
2023-04-02T20:48:31.282Z,97449.66
2023-04-02T20:51:05.088Z,97479.31
2023-04-02T20:53:34.956Z,97457.22
2023-04-02T20:56:06.919Z,97491.19
2023-04-02T20:58:36.436Z,97452.81
2023-04-02T21:01:10.063Z,97447.63
2023-04-02T21:03:39.942Z,97497.03
2023-04-02T21:06:13.316Z,97412.94
2023-04-02T21:08:41.613Z,97484.09
2023-04-02T21:11:12.190Z,97323.91
2023-04-02T21:13:44.404Z,97510.84
2023-04-02T21:16:21.400Z,97507.59
2023-04-02T21:18:51.316Z,97518.25
2023-04-02T21:21:21.330Z,97518.41
2023-04-02T21:23:54.236Z,97472.56
2023-04-02T21:26:24.467Z,97496.75
2023-04-02T21:28:52.659Z,97524.25
2023-04-02T21:31:22.939Z,97528.84
2023-04-02T21:33:53.764Z,97530.63
2023-04-02T21:36:24.414Z,97530.25
2023-04-02T21:38:55.180Z,97511.97
2023-04-02T21:41:26.502Z,97538.75
2023-04-02T21:43:55.513Z,97544.13
2023-04-02T21:46:25.827Z,97554.69
2023-04-02T21:48:56.077Z,97519.94
2023-04-02T21:51:26.049Z,97564.56
2023-04-02T21:53:55.428Z,97543.19
2023-04-02T21:56:27.226Z,97455.88
2023-04-02T21:58:56.850Z,97556.22
2023-04-02T22:01:28.227Z,97555.41
2023-04-02T22:03:57.708Z,97563.31
2023-04-02T22:06:28.053Z,97570.50
2023-04-02T22:08:58.309Z,97565.44
2023-04-02T22:11:30.602Z,97568.19
2023-04-02T22:13:58.976Z,97563.88
2023-04-02T22:16:29.600Z,97569.28
2023-04-02T22:18:59.590Z,97579.84
2023-04-02T22:21:28.266Z,97585.25
2023-04-02T22:23:57.010Z,97566.41
2023-04-02T22:26:25.184Z,97575.13
2023-04-02T22:28:54.856Z,97593.25
2023-04-02T22:31:25.134Z,97598.53
2023-04-02T22:33:54.199Z,97601.44
2023-04-02T22:36:23.263Z,97580.72
2023-04-02T22:38:51.995Z,97604.88
2023-04-02T22:41:22.715Z,97608.38
2023-04-02T22:43:51.243Z,97604.00
2023-04-02T22:46:21.341Z,97603.16
2023-04-02T22:48:50.469Z,97602.34
2023-04-02T22:51:20.846Z,97611.16
2023-04-02T22:53:50.034Z,97613.91
2023-04-02T22:56:22.142Z,97592.47
2023-04-02T22:58:50.420Z,97609.69
2023-04-02T23:01:22.154Z,97553.88
2023-04-02T23:03:50.829Z,97404.25
2023-04-02T23:06:19.650Z,97612.47
2023-04-02T23:08:48.236Z,97494.47
2023-04-02T23:11:18.681Z,97604.06
2023-04-02T23:13:49.284Z,97535.25
2023-04-02T23:16:18.144Z,97610.94
2023-04-02T23:18:48.528Z,97613.59
2023-04-02T23:21:17.579Z,97476.34
2023-04-02T23:23:46.184Z,97528.22
2023-04-02T23:26:16.422Z,97579.97
2023-04-02T23:28:45.063Z,97619.69
2023-04-02T23:31:20.282Z,97619.75
2023-04-02T23:33:50.157Z,97523.69
2023-04-02T23:36:22.428Z,97601.13
2023-04-02T23:38:55.188Z,97624.38
2023-04-02T23:41:24.948Z,97639.28
2023-04-02T23:43:53.229Z,97625.38
2023-04-02T23:46:22.612Z,97604.81
2023-04-02T23:48:54.555Z,97630.72
2023-04-02T23:51:23.385Z,97633.38
2023-04-02T23:53:52.290Z,97630.81
2023-04-02T23:56:21.834Z,97618.06
2023-04-02T23:58:50.847Z,97631.75
